Oosterschelde — PGNP — position and weather

sailwx.info

Track history (hours):
 
Tides and Currents Weather Stations Pressure Air Temp Water Temp Dewpoint Dewpoint Depression Visibility Wind Speed Wind Dir Waves Ship Positions

Oosterschelde (Netherlands)

Ship's website: http://www.oosterschelde.nl/indexuk.htm

Last reported at 2019-Aug-24 07:30 UTC. Time now 2019-Aug-24 07:53 UTC.
Position N 67°37' E 012°39'.

Length 49 m; draft 2.9 m.

Type: Sailing vessel. MMSI: 246010985.

Date/timePositionNaut miles runAvg speedWind from/ knotsBaromVisibWave heightAir tempDewpointWater temp
2019-Aug-24 07:30N 67°37' E 012°39'2 3.0
2019-Aug-24 06:58N 67°39' E 012°36'0 0.0
2019-Aug-24 06:28N 67°39' E 012°36'0 0.0
2019-Aug-24 05:58N 67°39' E 012°36'0 0.0
2019-Aug-24 05:28N 67°39' E 012°36'0 0.1
2019-Aug-24 04:58N 67°39' E 012°36'0 0.0
2019-Aug-24 04:28N 67°39' E 012°36'0 0.0
2019-Aug-24 03:58N 67°39' E 012°36'0 0.0
2019-Aug-24 03:28N 67°39' E 012°36'0 0.0
2019-Aug-24 02:58N 67°39' E 012°36'0 0.0
2019-Aug-24 02:28N 67°39' E 012°36'0 0.0
2019-Aug-24 01:58N 67°39' E 012°36'0 0.0
2019-Aug-24 01:28N 67°39' E 012°36'0 0.1
2019-Aug-24 00:58N 67°39' E 012°36'0 0.0
2019-Aug-24 00:28N 67°39' E 012°36'0 0.0
2019-Aug-23 23:58N 67°39' E 012°36'0 0.1
2019-Aug-23 23:28N 67°39' E 012°36'0 0.0
2019-Aug-23 22:58N 67°39' E 012°36'0 0.0
2019-Aug-23 22:30N 67°39' E 012°36'0 0.0
2019-Aug-23 22:00N 67°39' E 012°36'0 0.0
2019-Aug-23 21:30N 67°39' E 012°36'0 0.0
2019-Aug-23 21:00N 67°39' E 012°36'0 0.0
2019-Aug-23 20:30N 67°39' E 012°36'0 0.0
2019-Aug-23 20:00N 67°39' E 012°36'0 0.0
2019-Aug-23 19:30N 67°39' E 012°36'0 0.0
2019-Aug-23 19:00N 67°39' E 012°36'0 0.0
2019-Aug-23 18:30N 67°39' E 012°36'0 0.0
2019-Aug-23 17:59N 67°39' E 012°36'0 0.0
2019-Aug-23 17:30N 67°39' E 012°36'0 0.0
2019-Aug-23 17:00N 67°39' E 012°36'0 0.0
2019-Aug-23 16:30N 67°39' E 012°36'0 0.0
2019-Aug-23 16:00N 67°39' E 012°36'1 2.0
2019-Aug-23 15:30N 67°38' E 012°38'3 5.8
2019-Aug-23 15:00N 67°38' E 012°45'4 7.1
2019-Aug-23 14:30N 67°41' E 012°50'4 6.9
2019-Aug-23 14:00N 67°44' E 012°54'4 7.1
2019-Aug-23 13:30N 67°47' E 012°58'3 5.6
2019-Aug-23 12:59N 67°50' E 013°00'2 3.2
2019-Aug-23 12:30N 67°51' E 013°02'1 2.7
2019-Aug-23 12:00N 67°52' E 013°05'2 4.9
2019-Aug-23 11:30N 67°53' E 013°10'3 5.8
2019-Aug-23 11:00N 67°56' E 013°15'3 5.7
2019-Aug-23 10:30N 67°58' E 013°20'1 2.3
2019-Aug-23 10:00N 67°59' E 013°21'1 2.8
2019-Aug-23 09:30N 68°00' E 013°22'1 2.5
2019-Aug-23 09:00N 68°02' E 013°22'1 1.2
2019-Aug-23 08:30N 68°02' E 013°21'0 0.4
2019-Aug-23 08:00N 68°02' E 013°21'1 2.9
2019-Aug-23 07:30N 68°01' E 013°24'3 6.5
2019-Aug-23 07:00N 68°02' E 013°33'3 6.3
2019-Aug-23 06:30N 68°03' E 013°41'3 6.6
2019-Aug-23 06:00N 68°04' E 013°49'3 6.6
2019-Aug-23 05:30N 68°05' E 013°57'3 6.4
2019-Aug-23 05:00N 68°07' E 014°05'3 6.2
2019-Aug-23 04:30N 68°09' E 014°12'1 1.7
2019-Aug-23 03:59N 68°09' E 014°12'0 0.0
2019-Aug-23 03:29N 68°09' E 014°12'0 0.0
2019-Aug-23 02:59N 68°09' E 014°12'0 0.0
2019-Aug-23 02:29N 68°09' E 014°12'0 0.0
2019-Aug-23 01:59N 68°09' E 014°12'0 0.0
2019-Aug-23 01:29N 68°09' E 014°12'0 0.0
2019-Aug-23 00:59N 68°09' E 014°12'0 0.0
2019-Aug-23 00:29N 68°09' E 014°12'0 0.0
2019-Aug-22 23:59N 68°09' E 014°12'0 0.0
2019-Aug-22 23:29N 68°09' E 014°12'0 0.0
2019-Aug-22 22:59N 68°09' E 014°12'0 0.0
2019-Aug-22 22:29N 68°09' E 014°12'0 0.0
2019-Aug-22 21:59N 68°09' E 014°12'0 0.0
2019-Aug-22 21:29N 68°09' E 014°12'0 0.0
2019-Aug-22 20:59N 68°09' E 014°12'0 0.0
2019-Aug-22 20:29N 68°09' E 014°12'0 0.0
2019-Aug-22 19:59N 68°09' E 014°12'0 0.0
2019-Aug-22 19:29N 68°09' E 014°12'0 0.0
2019-Aug-22 18:59N 68°09' E 014°12'0 0.0
2019-Aug-22 18:29N 68°09' E 014°12'0 0.0
2019-Aug-22 17:59N 68°09' E 014°12'0 0.0
2019-Aug-22 17:29N 68°09' E 014°12'0 0.0
2019-Aug-22 16:59N 68°09' E 014°12'0 0.0
2019-Aug-22 16:29N 68°09' E 014°12'0 0.0
2019-Aug-22 15:59N 68°09' E 014°12'0 0.0
2019-Aug-22 15:29N 68°09' E 014°12'0 0.0
2019-Aug-22 14:59N 68°09' E 014°12'0 0.0
2019-Aug-22 14:29N 68°09' E 014°12'0 0.0
2019-Aug-22 13:59N 68°09' E 014°12'0 0.0
2019-Aug-22 13:29N 68°09' E 014°12'0 0.0
2019-Aug-22 12:59N 68°09' E 014°12'0 0.0
2019-Aug-22 12:26N 68°09' E 014°12'0 0.0
2019-Aug-22 11:59N 68°09' E 014°12'0 0.0
2019-Aug-22 11:29N 68°09' E 014°12'0 0.0
2019-Aug-22 11:00N 68°09' E 014°12'1 1.6
2019-Aug-22 10:30N 68°09' E 014°14'3 5.5
2019-Aug-22 10:00N 68°08' E 014°20'2 4.4
2019-Aug-22 09:30N 68°07' E 014°26'2 4.3
2019-Aug-22 09:00N 68°06' E 014°31'1 2.6
2019-Aug-22 08:30N 68°07' E 014°32'2 4.9
2019-Aug-22 08:00N 68°09' E 014°31'2 4.6
2019-Aug-22 07:30N 68°12' E 014°30'1 2.0
2019-Aug-22 07:00N 68°13' E 014°29'0 0.0
2019-Aug-22 06:30N 68°13' E 014°29'0 0.0
2019-Aug-22 06:00N 68°13' E 014°29'0 0.0
2019-Aug-22 05:30N 68°13' E 014°29'0 0.0
2019-Aug-22 05:00N 68°13' E 014°29'0 0.0
2019-Aug-22 04:27N 68°13' E 014°29'0 0.0
2019-Aug-22 04:00N 68°13' E 014°29'0 0.0
2019-Aug-22 03:30N 68°13' E 014°29'0 0.0
2019-Aug-22 03:00N 68°13' E 014°29'0 0.0
2019-Aug-22 02:30N 68°13' E 014°29'0 0.0
2019-Aug-22 02:00N 68°13' E 014°29'0 0.0
2019-Aug-22 01:30N 68°13' E 014°29'0 0.0
2019-Aug-22 01:00N 68°13' E 014°29'0 0.0
2019-Aug-22 00:30N 68°13' E 014°29'0 0.0
2019-Aug-22 00:00N 68°13' E 014°29'0 0.0
2019-Aug-21 23:30N 68°13' E 014°29'0 0.0
2019-Aug-21 23:00N 68°13' E 014°29'0 0.0
2019-Aug-21 22:30N 68°13' E 014°29'0 0.0
2019-Aug-21 22:00N 68°13' E 014°29'0 0.0
2019-Aug-21 21:30N 68°13' E 014°29'0 0.0
2019-Aug-21 21:00N 68°13' E 014°29'0 0.0
2019-Aug-21 20:30N 68°13' E 014°29'0 0.0
2019-Aug-21 20:00N 68°13' E 014°29'0 0.0
2019-Aug-21 19:27N 68°13' E 014°29'0 0.0
2019-Aug-21 19:00N 68°13' E 014°29'0 0.0
2019-Aug-21 18:30N 68°13' E 014°29'0 0.0
2019-Aug-21 18:00N 68°13' E 014°29'0 0.0
2019-Aug-21 17:30N 68°13' E 014°29'0 0.0
2019-Aug-21 17:00N 68°13' E 014°29'0 0.0
2019-Aug-21 16:30N 68°13' E 014°29'0 0.0
2019-Aug-21 16:00N 68°13' E 014°29'0 0.0
2019-Aug-21 15:30N 68°13' E 014°29'0 0.0
2019-Aug-21 15:00N 68°13' E 014°29'0 0.0
2019-Aug-21 14:30N 68°13' E 014°29'0 0.0
2019-Aug-21 14:00N 68°13' E 014°29'0 0.0
2019-Aug-21 13:30N 68°13' E 014°29'0 0.0
2019-Aug-21 13:00N 68°13' E 014°29'0 0.0
2019-Aug-21 12:30N 68°13' E 014°29'0 0.0
2019-Aug-21 12:00N 68°13' E 014°29'0 0.0
2019-Aug-21 11:30N 68°13' E 014°29'0 0.0
2019-Aug-21 11:00N 68°13' E 014°29'0 0.0
2019-Aug-21 10:30N 68°13' E 014°29'0 0.0
2019-Aug-21 10:00N 68°13' E 014°29'0 0.0
2019-Aug-21 09:26N 68°13' E 014°29'1 1.5
2019-Aug-21 09:00N 68°12' E 014°30'2 4.5
2019-Aug-21 08:30N 68°10' E 014°34'2 3.3
2019-Aug-21 08:00N 68°09' E 014°37'1 1.7
2019-Aug-21 07:25N 68°10' E 014°40'0 0.0
2019-Aug-21 06:58N 68°10' E 014°40'0 0.0
2019-Aug-21 06:25N 68°10' E 014°40'0 0.0
2019-Aug-21 05:58N 68°10' E 014°40'0 0.0
2019-Aug-21 05:28N 68°10' E 014°40'0 0.0
2019-Aug-21 04:58N 68°10' E 014°40'0 0.0
2019-Aug-21 04:28N 68°10' E 014°40'0 0.0
2019-Aug-21 03:58N 68°10' E 014°40'0 0.0
2019-Aug-21 03:28N 68°10' E 014°40'0 0.0
2019-Aug-21 02:55N 68°10' E 014°40'0 0.0
2019-Aug-21 02:28N 68°10' E 014°40'0 0.0
2019-Aug-21 01:58N 68°10' E 014°40'0 0.0
2019-Aug-21 01:25N 68°10' E 014°40'0 0.0
2019-Aug-21 00:58N 68°10' E 014°40'0 0.0
2019-Aug-21 00:28N 68°10' E 014°40'0 0.0
2019-Aug-20 23:58N 68°10' E 014°40'0 0.0
2019-Aug-20 23:28N 68°10' E 014°40'0 0.0
2019-Aug-20 22:58N 68°10' E 014°40'0 0.0
2019-Aug-20 22:28N 68°10' E 014°40'0 0.0
2019-Aug-20 21:58N 68°10' E 014°40'0 0.0
2019-Aug-20 21:25N 68°10' E 014°40'0 0.0
2019-Aug-20 20:58N 68°10' E 014°40'0 0.0
2019-Aug-20 20:28N 68°10' E 014°40'0 0.0
2019-Aug-20 19:58N 68°10' E 014°40'0 0.0
2019-Aug-20 19:28N 68°10' E 014°40'0 0.0
2019-Aug-20 18:55N 68°10' E 014°40'0 0.0
2019-Aug-20 18:28N 68°10' E 014°40'0 0.0
2019-Aug-20 17:58N 68°10' E 014°40'0 0.0
2019-Aug-20 17:28N 68°10' E 014°40'0 0.0
2019-Aug-20 16:58N 68°10' E 014°40'0 0.0
2019-Aug-20 16:28N 68°10' E 014°40'0 0.0
2019-Aug-20 15:58N 68°10' E 014°40'0 0.0
2019-Aug-20 15:28N 68°10' E 014°40'0 0.0
2019-Aug-20 14:52N 68°10' E 014°40'0 0.0
2019-Aug-20 14:25N 68°10' E 014°40'0 0.0
2019-Aug-20 14:00N 68°10' E 014°40'0 0.0
2019-Aug-20 13:31N 68°10' E 014°40'1 2.9
2019-Aug-20 13:00N 68°10' E 014°36'3 6.3
2019-Aug-20 12:30N 68°13' E 014°39'3 5.7
2019-Aug-20 12:00N 68°15' E 014°44'3 5.8
2019-Aug-20 11:30N 68°17' E 014°49'2 3.9
2019-Aug-20 11:00N 68°18' E 014°53'3 6.1
2019-Aug-20 10:30N 68°21' E 014°59'1 2.7
2019-Aug-20 10:00N 68°22' E 014°57'0 0.8
2019-Aug-20 09:29N 68°22' E 014°56'1 3.0
2019-Aug-20 09:00N 68°22' E 015°00'2 3.3
2019-Aug-20 08:30N 68°20' E 014°58'1 2.8
2019-Aug-20 08:00N 68°19' E 014°58'2 4.8
2019-Aug-20 07:30N 68°16' E 014°58'1 2.9
2019-Aug-20 07:00N 68°16' E 015°02'1 2.5
2019-Aug-20 06:30N 68°17' E 015°04'0 0.0
2019-Aug-20 06:00N 68°17' E 015°04'0 0.0
2019-Aug-20 05:30N 68°17' E 015°04'0 0.1
2019-Aug-20 05:00N 68°17' E 015°04'0 0.0
2019-Aug-20 04:30N 68°17' E 015°04'0 0.0
2019-Aug-20 04:00N 68°17' E 015°04'0 0.1
2019-Aug-20 03:30N 68°17' E 015°04'0 0.0
2019-Aug-20 03:00N 68°17' E 015°04'0 0.0
2019-Aug-20 02:30N 68°17' E 015°04'0 0.0
2019-Aug-20 02:00N 68°17' E 015°04'0 0.0
2019-Aug-20 01:30N 68°17' E 015°04'0 0.0
2019-Aug-20 01:00N 68°17' E 015°04'0 0.0
2019-Aug-20 00:30N 68°17' E 015°04'0 0.0
2019-Aug-20 00:00N 68°17' E 015°04'0 0.0
2019-Aug-19 23:30N 68°17' E 015°04'0 0.1
2019-Aug-19 23:00N 68°17' E 015°04'0 0.0
2019-Aug-19 22:30N 68°17' E 015°04'0 0.0
2019-Aug-19 22:00N 68°17' E 015°04'0 0.0
2019-Aug-19 21:30N 68°17' E 015°04'0 0.0
2019-Aug-19 21:00N 68°17' E 015°04'0 0.0
2019-Aug-19 20:27N 68°17' E 015°04'0 0.0
2019-Aug-19 20:00N 68°17' E 015°04'0 0.1
2019-Aug-19 19:30N 68°17' E 015°04'0 1.0
2019-Aug-19 19:00N 68°17' E 015°05'3 4.9
2019-Aug-19 18:30N 68°15' E 015°10'3 6.6
2019-Aug-19 18:00N 68°15' E 015°19'3 6.9
2019-Aug-19 17:30N 68°16' E 015°28'3 6.4
2019-Aug-19 17:00N 68°17' E 015°36'3 6.8
2019-Aug-19 16:30N 68°18' E 015°45'3 5.8
2019-Aug-19 16:00N 68°19' E 015°52'1 1.8
2019-Aug-19 15:30N 68°20' E 015°53'1 2.5
2019-Aug-19 15:00N 68°21' E 015°55'1 2.1
2019-Aug-19 14:29N 68°22' E 015°57'1 1.9
2019-Aug-19 14:00N 68°22' E 015°59'1 1.7
2019-Aug-19 13:30N 68°23' E 015°60'1 2.0
2019-Aug-19 13:00N 68°24' E 016°01'1 1.9
2019-Aug-19 12:30N 68°25' E 016°01'0 0.9
2019-Aug-19 12:00N 68°25' E 015°60'0 0.0
2019-Aug-19 11:30N 68°25' E 015°60'0 0.0
2019-Aug-19 11:00N 68°25' E 015°60'0 0.0
2019-Aug-19 10:30N 68°25' E 015°60'0 0.0
2019-Aug-19 10:00N 68°25' E 015°60'0 0.0
2019-Aug-19 09:30N 68°25' E 015°60'0 0.0
2019-Aug-19 09:00N 68°25' E 015°60'0 0.0
2019-Aug-19 08:30N 68°25' E 015°60'0 0.0
2019-Aug-19 08:00N 68°25' E 015°60'0 0.0
2019-Aug-19 07:30N 68°25' E 015°60'0 0.0
2019-Aug-19 07:00N 68°25' E 015°60'0 0.0
2019-Aug-19 06:30N 68°25' E 015°60'0 0.0
2019-Aug-19 06:00N 68°25' E 015°60'0 0.0
2019-Aug-19 05:30N 68°25' E 015°60'0 0.0
2019-Aug-19 05:00N 68°25' E 015°60'0 0.0
2019-Aug-19 04:30N 68°25' E 015°60'0 0.0
2019-Aug-19 04:00N 68°25' E 015°60'0 0.0
2019-Aug-19 03:30N 68°25' E 015°60'0 0.0
2019-Aug-19 03:00N 68°25' E 015°60'0 0.0
2019-Aug-19 02:27N 68°25' E 015°60'0 0.0
2019-Aug-19 02:00N 68°25' E 015°60'0 0.0
2019-Aug-19 01:30N 68°25' E 015°60'0 0.0
2019-Aug-19 01:00N 68°25' E 015°60'0 0.0
2019-Aug-19 00:30N 68°25' E 015°60'0 0.0
2019-Aug-19 00:00N 68°25' E 015°60'0 0.0
2019-Aug-18 23:30N 68°25' E 015°60'0 0.0
2019-Aug-18 23:00N 68°25' E 015°60'0 0.0
2019-Aug-18 22:30N 68°25' E 015°60'0 0.0
2019-Aug-18 22:00N 68°25' E 015°60'0 0.0
2019-Aug-18 21:30N 68°25' E 015°60'0 0.0
2019-Aug-18 21:00N 68°25' E 015°60'0 0.0
2019-Aug-18 20:30N 68°25' E 015°60'0 0.0
2019-Aug-18 20:00N 68°25' E 015°60'0 0.0
2019-Aug-18 19:30N 68°25' E 015°60'0 0.0
2019-Aug-18 19:00N 68°25' E 015°60'0 0.0
2019-Aug-18 18:30N 68°25' E 015°60'1 1.4
2019-Aug-18 18:00N 68°25' E 016°01'2 3.9
2019-Aug-18 17:30N 68°27' E 016°04'2 5.0
2019-Aug-18 17:00N 68°29' E 016°07'3 5.7
2019-Aug-18 16:30N 68°32' E 016°11'3 6.1
2019-Aug-18 16:01N 68°33' E 016°18'3 6.1
2019-Aug-18 15:30N 68°33' E 016°27'2 4.8
2019-Aug-18 15:01N 68°35' E 016°32'3 6.4
2019-Aug-18 14:30N 68°38' E 016°35'3 5.5
2019-Aug-18 14:00N 68°40' E 016°38'3 6.3
2019-Aug-18 13:30N 68°43' E 016°41'3 5.9
2019-Aug-18 13:01N 68°46' E 016°38'4 6.9
2019-Aug-18 12:30N 68°49' E 016°42'4 7.2
2019-Aug-18 12:00N 68°53' E 016°45'4 7.9
2019-Aug-18 11:30N 68°56' E 016°46'4 7.7
2019-Aug-18 11:00N 69°00' E 016°46'4 7.5
2019-Aug-18 10:30N 69°04' E 016°45'4 7.3
2019-Aug-18 10:00N 69°07' E 016°47'4 7.2
2019-Aug-18 09:30N 69°11' E 016°48'4 7.1
2019-Aug-18 09:00N 69°15' E 016°50'3 6.1
2019-Aug-18 08:30N 69°18' E 016°52'3 6.0
2019-Aug-18 08:00N 69°20' E 016°57'2 1.8
2019-Aug-18 07:00N 69°21' E 017°02'1 2.5
2019-Aug-18 06:29N 69°22' E 017°04'0 0.0
2019-Aug-18 05:59N 69°22' E 017°04'0 0.0
2019-Aug-18 05:29N 69°22' E 017°04'0 0.0
2019-Aug-18 04:59N 69°22' E 017°04'0 0.0
2019-Aug-18 04:29N 69°22' E 017°04'0 0.0
2019-Aug-18 03:59N 69°22' E 017°04'0 0.0
2019-Aug-18 03:29N 69°22' E 017°04'0 0.0
2019-Aug-18 02:59N 69°22' E 017°04'0 0.0
2019-Aug-18 02:29N 69°22' E 017°04'0 0.0
2019-Aug-18 01:59N 69°22' E 017°04'0 0.0
2019-Aug-18 01:29N 69°22' E 017°04'0 0.0
2019-Aug-18 00:59N 69°22' E 017°04'0 0.0
2019-Aug-18 00:29N 69°22' E 017°04'0 0.0
2019-Aug-17 23:59N 69°22' E 017°04'0 0.0
2019-Aug-17 23:29N 69°22' E 017°04'0 0.0
2019-Aug-17 22:59N 69°22' E 017°04'0 0.0
2019-Aug-17 22:29N 69°22' E 017°04'0 0.0
2019-Aug-17 21:59N 69°22' E 017°04'0 0.0
2019-Aug-17 21:29N 69°22' E 017°04'0 0.0
2019-Aug-17 20:59N 69°22' E 017°04'0 0.0
2019-Aug-17 20:29N 69°22' E 017°04'0 0.0
2019-Aug-17 19:59N 69°22' E 017°04'0 0.0
2019-Aug-17 19:29N 69°22' E 017°04'0 0.0
2019-Aug-17 18:59N 69°22' E 017°04'2 3.2
2019-Aug-17 18:29N 69°21' E 016°59'4 4.2
2019-Aug-17 17:30N 69°23' E 016°48'2 3.7
2019-Aug-17 17:00N 69°25' E 016°46'2 4.0
2019-Aug-17 16:30N 69°27' E 016°44'2 3.1
2019-Aug-17 16:00N 69°28' E 016°43'1 3.0
2019-Aug-17 15:30N 69°29' E 016°42'1 2.7
2019-Aug-17 15:00N 69°31' E 016°44'3 5.3
2019-Aug-17 14:30N 69°31' E 016°52'2 4.8
2019-Aug-17 14:00N 69°30' E 016°58'3 5.1
2019-Aug-17 13:30N 69°29' E 017°05'2 4.9
2019-Aug-17 13:00N 69°28' E 017°11'3 5.3
2019-Aug-17 12:29N 69°27' E 017°18'0 0.0
2019-Aug-17 11:59N 69°27' E 017°18'0 0.0
2019-Aug-17 11:26N 69°27' E 017°18'0 0.0
2019-Aug-17 10:59N 69°27' E 017°18'0 0.0
2019-Aug-17 10:29N 69°27' E 017°18'0 0.0
2019-Aug-17 09:59N 69°27' E 017°18'0 0.0
2019-Aug-17 09:29N 69°27' E 017°18'0 0.0
2019-Aug-17 08:59N 69°27' E 017°18'0 0.0
2019-Aug-17 08:29N 69°27' E 017°18'0 0.0
2019-Aug-17 07:59N 69°27' E 017°18'0 0.0
2019-Aug-17 07:29N 69°27' E 017°18'0 0.3
2019-Aug-17 07:00N 69°27' E 017°17'2 3.7
2019-Aug-17 06:30N 69°28' E 017°13'1 1.0
2019-Aug-17 05:58N 69°28' E 017°12'0 0.0
2019-Aug-17 05:28N 69°28' E 017°12'0 0.0
2019-Aug-17 04:58N 69°28' E 017°12'0 0.0
2019-Aug-17 04:28N 69°28' E 017°12'0 0.0
2019-Aug-17 03:58N 69°28' E 017°12'0 0.0
2019-Aug-17 03:28N 69°28' E 017°12'0 0.0
2019-Aug-17 02:58N 69°28' E 017°12'0 0.0
2019-Aug-17 02:28N 69°28' E 017°12'0 0.0
2019-Aug-17 01:58N 69°28' E 017°12'0 0.0
2019-Aug-17 01:28N 69°28' E 017°12'0 0.0
2019-Aug-17 01:01N 69°28' E 017°12'0 0.0
2019-Aug-17 00:28N 69°28' E 017°12'0 0.0
2019-Aug-16 23:58N 69°28' E 017°12'0 0.0
2019-Aug-16 23:28N 69°28' E 017°12'0 0.0
2019-Aug-16 22:58N 69°28' E 017°12'0 0.0
2019-Aug-16 22:31N 69°28' E 017°12'0 0.0
2019-Aug-16 21:58N 69°28' E 017°12'0 0.0
2019-Aug-16 21:28N 69°28' E 017°12'0 0.0
2019-Aug-16 20:58N 69°28' E 017°12'0 0.0
2019-Aug-16 20:31N 69°28' E 017°12'0 0.0
2019-Aug-16 20:01N 69°28' E 017°12'0 0.0
2019-Aug-16 19:28N 69°28' E 017°12'0 0.0
2019-Aug-16 19:01N 69°28' E 017°12'0 0.0
2019-Aug-16 18:31N 69°28' E 017°12'0 0.0
2019-Aug-16 18:01N 69°28' E 017°12'0 0.0
2019-Aug-16 17:30N 69°28' E 017°12'0 0.3
2019-Aug-16 17:00N 69°28' E 017°12'2 4.1
2019-Aug-16 16:30N 69°30' E 017°09'1 2.7
2019-Aug-16 16:00N 69°31' E 017°09'2 4.1
2019-Aug-16 15:30N 69°33' E 017°11'3 5.6
2019-Aug-16 14:59N 69°36' E 017°10'2 4.7
2019-Aug-16 14:30N 69°38' E 017°13'3 5.8
2019-Aug-16 14:00N 69°39' E 017°21'3 5.5
2019-Aug-16 13:30N 69°40' E 017°28'2 4.9
2019-Aug-16 13:00N 69°40' E 017°35'3 6.2
2019-Aug-16 12:30N 69°39' E 017°43'3 6.2
2019-Aug-16 11:59N 69°37' E 017°50'3 6.9
2019-Aug-16 11:30N 69°34' E 017°56'4 7.0
2019-Aug-16 11:00N 69°32' E 018°04'3 7.0
2019-Aug-16 10:30N 69°31' E 018°13'4 7.1
2019-Aug-16 10:00N 69°31' E 018°23'4 7.1
2019-Aug-16 09:30N 69°33' E 018°33'3 6.5
2019-Aug-16 09:00N 69°33' E 018°42'2 3.7
2019-Aug-16 08:30N 69°34' E 018°47'3 6.4
2019-Aug-16 08:00N 69°36' E 018°53'3 5.6
2019-Aug-16 07:30N 69°39' E 018°58'0 0.4
2019-Aug-16 06:59N 69°39' E 018°57'0 0.0
2019-Aug-16 06:29N 69°39' E 018°57'0 0.0
2019-Aug-16 05:59N 69°39' E 018°57'0 0.0
2019-Aug-16 05:29N 69°39' E 018°57'0 0.0
2019-Aug-16 04:59N 69°39' E 018°57'0 0.0
2019-Aug-16 04:29N 69°39' E 018°57'0 0.0
2019-Aug-16 03:59N 69°39' E 018°57'0 0.0
2019-Aug-16 03:29N 69°39' E 018°57'0 0.0
2019-Aug-16 02:59N 69°39' E 018°57'0 0.0
2019-Aug-16 02:29N 69°39' E 018°57'0 0.0
2019-Aug-16 01:59N 69°39' E 018°57'0 0.0
2019-Aug-16 01:29N 69°39' E 018°57'0 0.0
2019-Aug-16 00:59N 69°39' E 018°57'0 0.0
2019-Aug-16 00:29N 69°39' E 018°57'0 0.0
2019-Aug-15 23:59N 69°39' E 018°57'0 0.0
2019-Aug-15 23:29N 69°39' E 018°57'0 0.0
2019-Aug-15 22:59N 69°39' E 018°57'0 0.0
2019-Aug-15 22:29N 69°39' E 018°57'0 0.0
2019-Aug-15 21:59N 69°39' E 018°57'0 0.0
2019-Aug-15 21:29N 69°39' E 018°57'0 0.0
2019-Aug-15 20:59N 69°39' E 018°57'0 0.0
2019-Aug-15 20:29N 69°39' E 018°57'0 0.0
2019-Aug-15 19:59N 69°39' E 018°57'0 0.0
2019-Aug-15 19:29N 69°39' E 018°57'0 0.0
2019-Aug-15 18:59N 69°39' E 018°57'0 0.0
2019-Aug-15 18:29N 69°39' E 018°57'0 0.0
2019-Aug-15 17:59N 69°39' E 018°57'0 0.0
2019-Aug-15 17:29N 69°39' E 018°57'0 0.0
2019-Aug-15 16:59N 69°39' E 018°57'0 0.0
2019-Aug-15 16:29N 69°39' E 018°57'0 0.0
2019-Aug-15 15:59N 69°39' E 018°57'0 0.0
2019-Aug-15 15:29N 69°39' E 018°57'0 0.0
2019-Aug-15 14:59N 69°39' E 018°57'0 0.0
2019-Aug-15 14:29N 69°39' E 018°57'0 0.0
2019-Aug-15 13:59N 69°39' E 018°57'0 0.0
2019-Aug-15 13:29N 69°39' E 018°57'0 0.0
2019-Aug-15 12:59N 69°39' E 018°57'0 0.0
2019-Aug-15 12:29N 69°39' E 018°57'0 0.0
2019-Aug-15 11:59N 69°39' E 018°57'0 0.0
2019-Aug-15 11:29N 69°39' E 018°57'0 0.0
2019-Aug-15 10:59N 69°39' E 018°57'0 0.0
2019-Aug-15 10:29N 69°39' E 018°57'0 0.0
2019-Aug-15 09:59N 69°39' E 018°57'0 0.0
2019-Aug-15 09:29N 69°39' E 018°57'0 0.0
2019-Aug-15 08:56N 69°39' E 018°57'0 0.0
2019-Aug-15 08:29N 69°39' E 018°57'0 0.0
2019-Aug-15 07:59N 69°39' E 018°57'0 0.0
2019-Aug-15 07:29N 69°39' E 018°57'0 0.0
2019-Aug-15 06:59N 69°39' E 018°57'0 0.0
2019-Aug-15 06:29N 69°39' E 018°57'0 0.0
2019-Aug-15 05:59N 69°39' E 018°57'0 0.0
2019-Aug-15 05:29N 69°39' E 018°57'0 0.0
2019-Aug-15 04:59N 69°39' E 018°57'0 0.0
2019-Aug-15 04:29N 69°39' E 018°57'0 0.0
2019-Aug-15 03:59N 69°39' E 018°57'0 0.0
2019-Aug-15 03:29N 69°39' E 018°57'0 0.0
2019-Aug-15 02:59N 69°39' E 018°57'0 0.0
2019-Aug-15 02:29N 69°39' E 018°57'0 0.0
2019-Aug-15 01:59N 69°39' E 018°57'0 0.0
2019-Aug-15 01:29N 69°39' E 018°57'0 0.0
2019-Aug-15 00:59N 69°39' E 018°57'0 0.0
2019-Aug-15 00:29N 69°39' E 018°57'0 0.0
2019-Aug-14 23:59N 69°39' E 018°57'0 0.0
2019-Aug-14 23:29N 69°39' E 018°57'0 0.0
2019-Aug-14 22:59N 69°39' E 018°57'0 0.0
2019-Aug-14 22:29N 69°39' E 018°57'0 0.0
2019-Aug-14 21:59N 69°39' E 018°57'0 0.0
2019-Aug-14 21:29N 69°39' E 018°57'0 0.0
2019-Aug-14 20:59N 69°39' E 018°57'0 0.0
2019-Aug-14 20:29N 69°39' E 018°57'0 0.0
2019-Aug-14 19:59N 69°39' E 018°57'0 0.0
2019-Aug-14 19:29N 69°39' E 018°57'0 0.0
2019-Aug-14 18:59N 69°39' E 018°57'0 0.0
2019-Aug-14 18:29N 69°39' E 018°57'0 0.0
2019-Aug-14 17:59N 69°39' E 018°57'0 0.0
2019-Aug-14 17:26N 69°39' E 018°57'0 0.0
2019-Aug-14 16:59N 69°39' E 018°57'0 0.0
2019-Aug-14 16:29N 69°39' E 018°57'0 0.0
2019-Aug-14 15:59N 69°39' E 018°57'0 0.0
2019-Aug-14 15:29N 69°39' E 018°57'0 0.0
2019-Aug-14 14:59N 69°39' E 018°57'0 0.0
2019-Aug-14 14:26N 69°39' E 018°57'0 0.0
2019-Aug-14 13:59N 69°39' E 018°57'0 0.0
2019-Aug-14 13:30N 69°39' E 018°57'1 2.2
2019-Aug-14 13:00N 69°38' E 018°56'2 4.7
2019-Aug-14 12:29N 69°36' E 018°53'2 4.0
2019-Aug-14 12:00N 69°34' E 018°49'3 5.6
2019-Aug-14 11:30N 69°33' E 018°42'3 5.7
2019-Aug-14 11:00N 69°32' E 018°34'2 4.6
2019-Aug-14 10:30N 69°32' E 018°28'2 4.2
2019-Aug-14 10:00N 69°30' E 018°25'3 6.0
2019-Aug-14 09:30N 69°27' E 018°26'3 5.7
2019-Aug-14 09:00N 69°24' E 018°29'3 6.0
2019-Aug-14 08:30N 69°22' E 018°36'3 5.7
2019-Aug-14 08:00N 69°21' E 018°42'3 5.5
2019-Aug-14 07:30N 69°20' E 018°50'  
Track history (hours):
 
Tides and Currents Weather Stations Pressure Air Temp Water Temp Dewpoint Dewpoint Depression Visibility Wind Speed Wind Dir Waves Ship Positions

Oosterschelde (Netherlands)

Ship's website: http://www.oosterschelde.nl/indexuk.htm

Last reported at 2019-Aug-24 07:30 UTC. Time now 2019-Aug-24 07:53 UTC.
Position N 67°37' E 012°39'.

Length 49 m; draft 2.9 m.

Type: Sailing vessel. MMSI: 246010985.

Date/timePositionNaut miles runAvg speedWind from/ knotsBaromVisibWave heightAir tempDewpointWater temp
2019-Aug-24 07:30N 67°37' E 012°39'2 3.0
2019-Aug-24 06:58N 67°39' E 012°36'0 0.0
2019-Aug-24 06:28N 67°39' E 012°36'0 0.0
2019-Aug-24 05:58N 67°39' E 012°36'0 0.0
2019-Aug-24 05:28N 67°39' E 012°36'0 0.1
2019-Aug-24 04:58N 67°39' E 012°36'0 0.0
2019-Aug-24 04:28N 67°39' E 012°36'0 0.0
2019-Aug-24 03:58N 67°39' E 012°36'0 0.0
2019-Aug-24 03:28N 67°39' E 012°36'0 0.0
2019-Aug-24 02:58N 67°39' E 012°36'0 0.0
2019-Aug-24 02:28N 67°39' E 012°36'0 0.0
2019-Aug-24 01:58N 67°39' E 012°36'0 0.0
2019-Aug-24 01:28N 67°39' E 012°36'0 0.1
2019-Aug-24 00:58N 67°39' E 012°36'0 0.0
2019-Aug-24 00:28N 67°39' E 012°36'0 0.0
2019-Aug-23 23:58N 67°39' E 012°36'0 0.1
2019-Aug-23 23:28N 67°39' E 012°36'0 0.0
2019-Aug-23 22:58N 67°39' E 012°36'0 0.0
2019-Aug-23 22:30N 67°39' E 012°36'0 0.0
2019-Aug-23 22:00N 67°39' E 012°36'0 0.0
2019-Aug-23 21:30N 67°39' E 012°36'0 0.0
2019-Aug-23 21:00N 67°39' E 012°36'0 0.0
2019-Aug-23 20:30N 67°39' E 012°36'0 0.0
2019-Aug-23 20:00N 67°39' E 012°36'0 0.0
2019-Aug-23 19:30N 67°39' E 012°36'0 0.0
2019-Aug-23 19:00N 67°39' E 012°36'0 0.0
2019-Aug-23 18:30N 67°39' E 012°36'0 0.0
2019-Aug-23 17:59N 67°39' E 012°36'0 0.0
2019-Aug-23 17:30N 67°39' E 012°36'0 0.0
2019-Aug-23 17:00N 67°39' E 012°36'0 0.0
2019-Aug-23 16:30N 67°39' E 012°36'0 0.0
2019-Aug-23 16:00N 67°39' E 012°36'1 2.0
2019-Aug-23 15:30N 67°38' E 012°38'3 5.8
2019-Aug-23 15:00N 67°38' E 012°45'4 7.1
2019-Aug-23 14:30N 67°41' E 012°50'4 6.9
2019-Aug-23 14:00N 67°44' E 012°54'4 7.1
2019-Aug-23 13:30N 67°47' E 012°58'3 5.6
2019-Aug-23 12:59N 67°50' E 013°00'2 3.2
2019-Aug-23 12:30N 67°51' E 013°02'1 2.7
2019-Aug-23 12:00N 67°52' E 013°05'2 4.9
2019-Aug-23 11:30N 67°53' E 013°10'3 5.8
2019-Aug-23 11:00N 67°56' E 013°15'3 5.7
2019-Aug-23 10:30N 67°58' E 013°20'1 2.3
2019-Aug-23 10:00N 67°59' E 013°21'1 2.8
2019-Aug-23 09:30N 68°00' E 013°22'1 2.5
2019-Aug-23 09:00N 68°02' E 013°22'1 1.2
2019-Aug-23 08:30N 68°02' E 013°21'0 0.4
2019-Aug-23 08:00N 68°02' E 013°21'1 2.9
2019-Aug-23 07:30N 68°01' E 013°24'3 6.5
2019-Aug-23 07:00N 68°02' E 013°33'3 6.3
2019-Aug-23 06:30N 68°03' E 013°41'3 6.6
2019-Aug-23 06:00N 68°04' E 013°49'3 6.6
2019-Aug-23 05:30N 68°05' E 013°57'3 6.4
2019-Aug-23 05:00N 68°07' E 014°05'3 6.2
2019-Aug-23 04:30N 68°09' E 014°12'1 1.7
2019-Aug-23 03:59N 68°09' E 014°12'0 0.0
2019-Aug-23 03:29N 68°09' E 014°12'0 0.0
2019-Aug-23 02:59N 68°09' E 014°12'0 0.0
2019-Aug-23 02:29N 68°09' E 014°12'0 0.0
2019-Aug-23 01:59N 68°09' E 014°12'0 0.0
2019-Aug-23 01:29N 68°09' E 014°12'0 0.0
2019-Aug-23 00:59N 68°09' E 014°12'0 0.0
2019-Aug-23 00:29N 68°09' E 014°12'0 0.0
2019-Aug-22 23:59N 68°09' E 014°12'0 0.0
2019-Aug-22 23:29N 68°09' E 014°12'0 0.0
2019-Aug-22 22:59N 68°09' E 014°12'0 0.0
2019-Aug-22 22:29N 68°09' E 014°12'0 0.0
2019-Aug-22 21:59N 68°09' E 014°12'0 0.0
2019-Aug-22 21:29N 68°09' E 014°12'0 0.0
2019-Aug-22 20:59N 68°09' E 014°12'0 0.0
2019-Aug-22 20:29N 68°09' E 014°12'0 0.0
2019-Aug-22 19:59N 68°09' E 014°12'0 0.0
2019-Aug-22 19:29N 68°09' E 014°12'0 0.0
2019-Aug-22 18:59N 68°09' E 014°12'0 0.0
2019-Aug-22 18:29N 68°09' E 014°12'0 0.0
2019-Aug-22 17:59N 68°09' E 014°12'0 0.0
2019-Aug-22 17:29N 68°09' E 014°12'0 0.0
2019-Aug-22 16:59N 68°09' E 014°12'0 0.0
2019-Aug-22 16:29N 68°09' E 014°12'0 0.0
2019-Aug-22 15:59N 68°09' E 014°12'0 0.0
2019-Aug-22 15:29N 68°09' E 014°12'0 0.0
2019-Aug-22 14:59N 68°09' E 014°12'0 0.0
2019-Aug-22 14:29N 68°09' E 014°12'0 0.0
2019-Aug-22 13:59N 68°09' E 014°12'0 0.0
2019-Aug-22 13:29N 68°09' E 014°12'0 0.0
2019-Aug-22 12:59N 68°09' E 014°12'0 0.0
2019-Aug-22 12:26N 68°09' E 014°12'0 0.0
2019-Aug-22 11:59N 68°09' E 014°12'0 0.0
2019-Aug-22 11:29N 68°09' E 014°12'0 0.0
2019-Aug-22 11:00N 68°09' E 014°12'1 1.6
2019-Aug-22 10:30N 68°09' E 014°14'3 5.5
2019-Aug-22 10:00N 68°08' E 014°20'2 4.4
2019-Aug-22 09:30N 68°07' E 014°26'2 4.3
2019-Aug-22 09:00N 68°06' E 014°31'1 2.6
2019-Aug-22 08:30N 68°07' E 014°32'2 4.9
2019-Aug-22 08:00N 68°09' E 014°31'2 4.6
2019-Aug-22 07:30N 68°12' E 014°30'1 2.0
2019-Aug-22 07:00N 68°13' E 014°29'0 0.0
2019-Aug-22 06:30N 68°13' E 014°29'0 0.0
2019-Aug-22 06:00N 68°13' E 014°29'0 0.0
2019-Aug-22 05:30N 68°13' E 014°29'0 0.0
2019-Aug-22 05:00N 68°13' E 014°29'0 0.0
2019-Aug-22 04:27N 68°13' E 014°29'0 0.0
2019-Aug-22 04:00N 68°13' E 014°29'0 0.0
2019-Aug-22 03:30N 68°13' E 014°29'0 0.0
2019-Aug-22 03:00N 68°13' E 014°29'0 0.0
2019-Aug-22 02:30N 68°13' E 014°29'0 0.0
2019-Aug-22 02:00N 68°13' E 014°29'0 0.0
2019-Aug-22 01:30N 68°13' E 014°29'0 0.0
2019-Aug-22 01:00N 68°13' E 014°29'0 0.0
2019-Aug-22 00:30N 68°13' E 014°29'0 0.0
2019-Aug-22 00:00N 68°13' E 014°29'0 0.0
2019-Aug-21 23:30N 68°13' E 014°29'0 0.0
2019-Aug-21 23:00N 68°13' E 014°29'0 0.0
2019-Aug-21 22:30N 68°13' E 014°29'0 0.0
2019-Aug-21 22:00N 68°13' E 014°29'0 0.0
2019-Aug-21 21:30N 68°13' E 014°29'0 0.0
2019-Aug-21 21:00N 68°13' E 014°29'0 0.0
2019-Aug-21 20:30N 68°13' E 014°29'0 0.0
2019-Aug-21 20:00N 68°13' E 014°29'0 0.0
2019-Aug-21 19:27N 68°13' E 014°29'0 0.0
2019-Aug-21 19:00N 68°13' E 014°29'0 0.0
2019-Aug-21 18:30N 68°13' E 014°29'0 0.0
2019-Aug-21 18:00N 68°13' E 014°29'0 0.0
2019-Aug-21 17:30N 68°13' E 014°29'0 0.0
2019-Aug-21 17:00N 68°13' E 014°29'0 0.0
2019-Aug-21 16:30N 68°13' E 014°29'0 0.0
2019-Aug-21 16:00N 68°13' E 014°29'0 0.0
2019-Aug-21 15:30N 68°13' E 014°29'0 0.0
2019-Aug-21 15:00N 68°13' E 014°29'0 0.0
2019-Aug-21 14:30N 68°13' E 014°29'0 0.0
2019-Aug-21 14:00N 68°13' E 014°29'0 0.0
2019-Aug-21 13:30N 68°13' E 014°29'0 0.0
2019-Aug-21 13:00N 68°13' E 014°29'0 0.0
2019-Aug-21 12:30N 68°13' E 014°29'0 0.0
2019-Aug-21 12:00N 68°13' E 014°29'0 0.0
2019-Aug-21 11:30N 68°13' E 014°29'0 0.0
2019-Aug-21 11:00N 68°13' E 014°29'0 0.0
2019-Aug-21 10:30N 68°13' E 014°29'0 0.0
2019-Aug-21 10:00N 68°13' E 014°29'0 0.0
2019-Aug-21 09:26N 68°13' E 014°29'1 1.5
2019-Aug-21 09:00N 68°12' E 014°30'2 4.5
2019-Aug-21 08:30N 68°10' E 014°34'2 3.3
2019-Aug-21 08:00N 68°09' E 014°37'1 1.7
2019-Aug-21 07:25N 68°10' E 014°40'0 0.0
2019-Aug-21 06:58N 68°10' E 014°40'0 0.0
2019-Aug-21 06:25N 68°10' E 014°40'0 0.0
2019-Aug-21 05:58N 68°10' E 014°40'0 0.0
2019-Aug-21 05:28N 68°10' E 014°40'0 0.0
2019-Aug-21 04:58N 68°10' E 014°40'0 0.0
2019-Aug-21 04:28N 68°10' E 014°40'0 0.0
2019-Aug-21 03:58N 68°10' E 014°40'0 0.0
2019-Aug-21 03:28N 68°10' E 014°40'0 0.0
2019-Aug-21 02:55N 68°10' E 014°40'0 0.0
2019-Aug-21 02:28N 68°10' E 014°40'0 0.0
2019-Aug-21 01:58N 68°10' E 014°40'0 0.0
2019-Aug-21 01:25N 68°10' E 014°40'0 0.0
2019-Aug-21 00:58N 68°10' E 014°40'0 0.0
2019-Aug-21 00:28N 68°10' E 014°40'0 0.0
2019-Aug-20 23:58N 68°10' E 014°40'0 0.0
2019-Aug-20 23:28N 68°10' E 014°40'0 0.0
2019-Aug-20 22:58N 68°10' E 014°40'0 0.0
2019-Aug-20 22:28N 68°10' E 014°40'0 0.0
2019-Aug-20 21:58N 68°10' E 014°40'0 0.0
2019-Aug-20 21:25N 68°10' E 014°40'0 0.0
2019-Aug-20 20:58N 68°10' E 014°40'0 0.0
2019-Aug-20 20:28N 68°10' E 014°40'0 0.0
2019-Aug-20 19:58N 68°10' E 014°40'0 0.0
2019-Aug-20 19:28N 68°10' E 014°40'0 0.0
2019-Aug-20 18:55N 68°10' E 014°40'0 0.0
2019-Aug-20 18:28N 68°10' E 014°40'0 0.0
2019-Aug-20 17:58N 68°10' E 014°40'0 0.0
2019-Aug-20 17:28N 68°10' E 014°40'0 0.0
2019-Aug-20 16:58N 68°10' E 014°40'0 0.0
2019-Aug-20 16:28N 68°10' E 014°40'0 0.0
2019-Aug-20 15:58N 68°10' E 014°40'0 0.0
2019-Aug-20 15:28N 68°10' E 014°40'0 0.0
2019-Aug-20 14:52N 68°10' E 014°40'0 0.0
2019-Aug-20 14:25N 68°10' E 014°40'0 0.0
2019-Aug-20 14:00N 68°10' E 014°40'0 0.0
2019-Aug-20 13:31N 68°10' E 014°40'1 2.9
2019-Aug-20 13:00N 68°10' E 014°36'3 6.3
2019-Aug-20 12:30N 68°13' E 014°39'3 5.7
2019-Aug-20 12:00N 68°15' E 014°44'3 5.8
2019-Aug-20 11:30N 68°17' E 014°49'2 3.9
2019-Aug-20 11:00N 68°18' E 014°53'3 6.1
2019-Aug-20 10:30N 68°21' E 014°59'1 2.7
2019-Aug-20 10:00N 68°22' E 014°57'0 0.8
2019-Aug-20 09:29N 68°22' E 014°56'1 3.0
2019-Aug-20 09:00N 68°22' E 015°00'2 3.3
2019-Aug-20 08:30N 68°20' E 014°58'1 2.8
2019-Aug-20 08:00N 68°19' E 014°58'2 4.8
2019-Aug-20 07:30N 68°16' E 014°58'1 2.9
2019-Aug-20 07:00N 68°16' E 015°02'1 2.5
2019-Aug-20 06:30N 68°17' E 015°04'0 0.0
2019-Aug-20 06:00N 68°17' E 015°04'0 0.0
2019-Aug-20 05:30N 68°17' E 015°04'0 0.1
2019-Aug-20 05:00N 68°17' E 015°04'0 0.0
2019-Aug-20 04:30N 68°17' E 015°04'0 0.0
2019-Aug-20 04:00N 68°17' E 015°04'0 0.1
2019-Aug-20 03:30N 68°17' E 015°04'0 0.0
2019-Aug-20 03:00N 68°17' E 015°04'0 0.0
2019-Aug-20 02:30N 68°17' E 015°04'0 0.0
2019-Aug-20 02:00N 68°17' E 015°04'0 0.0
2019-Aug-20 01:30N 68°17' E 015°04'0 0.0
2019-Aug-20 01:00N 68°17' E 015°04'0 0.0
2019-Aug-20 00:30N 68°17' E 015°04'0 0.0
2019-Aug-20 00:00N 68°17' E 015°04'0 0.0
2019-Aug-19 23:30N 68°17' E 015°04'0 0.1
2019-Aug-19 23:00N 68°17' E 015°04'0 0.0
2019-Aug-19 22:30N 68°17' E 015°04'0 0.0
2019-Aug-19 22:00N 68°17' E 015°04'0 0.0
2019-Aug-19 21:30N 68°17' E 015°04'0 0.0
2019-Aug-19 21:00N 68°17' E 015°04'0 0.0
2019-Aug-19 20:27N 68°17' E 015°04'0 0.0
2019-Aug-19 20:00N 68°17' E 015°04'0 0.1
2019-Aug-19 19:30N 68°17' E 015°04'0 1.0
2019-Aug-19 19:00N 68°17' E 015°05'3 4.9
2019-Aug-19 18:30N 68°15' E 015°10'3 6.6
2019-Aug-19 18:00N 68°15' E 015°19'3 6.9
2019-Aug-19 17:30N 68°16' E 015°28'3 6.4
2019-Aug-19 17:00N 68°17' E 015°36'3 6.8
2019-Aug-19 16:30N 68°18' E 015°45'3 5.8
2019-Aug-19 16:00N 68°19' E 015°52'1 1.8
2019-Aug-19 15:30N 68°20' E 015°53'1 2.5
2019-Aug-19 15:00N 68°21' E 015°55'1 2.1
2019-Aug-19 14:29N 68°22' E 015°57'1 1.9
2019-Aug-19 14:00N 68°22' E 015°59'1 1.7
2019-Aug-19 13:30N 68°23' E 015°60'1 2.0
2019-Aug-19 13:00N 68°24' E 016°01'1 1.9
2019-Aug-19 12:30N 68°25' E 016°01'0 0.9
2019-Aug-19 12:00N 68°25' E 015°60'0 0.0
2019-Aug-19 11:30N 68°25' E 015°60'0 0.0
2019-Aug-19 11:00N 68°25' E 015°60'0 0.0
2019-Aug-19 10:30N 68°25' E 015°60'0 0.0
2019-Aug-19 10:00N 68°25' E 015°60'0 0.0
2019-Aug-19 09:30N 68°25' E 015°60'0 0.0
2019-Aug-19 09:00N 68°25' E 015°60'0 0.0
2019-Aug-19 08:30N 68°25' E 015°60'0 0.0
2019-Aug-19 08:00N 68°25' E 015°60'0 0.0
2019-Aug-19 07:30N 68°25' E 015°60'0 0.0
2019-Aug-19 07:00N 68°25' E 015°60'0 0.0
2019-Aug-19 06:30N 68°25' E 015°60'0 0.0
2019-Aug-19 06:00N 68°25' E 015°60'0 0.0
2019-Aug-19 05:30N 68°25' E 015°60'0 0.0
2019-Aug-19 05:00N 68°25' E 015°60'0 0.0
2019-Aug-19 04:30N 68°25' E 015°60'0 0.0
2019-Aug-19 04:00N 68°25' E 015°60'0 0.0
2019-Aug-19 03:30N 68°25' E 015°60'0 0.0
2019-Aug-19 03:00N 68°25' E 015°60'0 0.0
2019-Aug-19 02:27N 68°25' E 015°60'0 0.0
2019-Aug-19 02:00N 68°25' E 015°60'0 0.0
2019-Aug-19 01:30N 68°25' E 015°60'0 0.0
2019-Aug-19 01:00N 68°25' E 015°60'0 0.0
2019-Aug-19 00:30N 68°25' E 015°60'0 0.0
2019-Aug-19 00:00N 68°25' E 015°60'0 0.0
2019-Aug-18 23:30N 68°25' E 015°60'0 0.0
2019-Aug-18 23:00N 68°25' E 015°60'0 0.0
2019-Aug-18 22:30N 68°25' E 015°60'0 0.0
2019-Aug-18 22:00N 68°25' E 015°60'0 0.0
2019-Aug-18 21:30N 68°25' E 015°60'0 0.0
2019-Aug-18 21:00N 68°25' E 015°60'0 0.0
2019-Aug-18 20:30N 68°25' E 015°60'0 0.0
2019-Aug-18 20:00N 68°25' E 015°60'0 0.0
2019-Aug-18 19:30N 68°25' E 015°60'0 0.0
2019-Aug-18 19:00N 68°25' E 015°60'0 0.0
2019-Aug-18 18:30N 68°25' E 015°60'1 1.4
2019-Aug-18 18:00N 68°25' E 016°01'2 3.9
2019-Aug-18 17:30N 68°27' E 016°04'2 5.0
2019-Aug-18 17:00N 68°29' E 016°07'3 5.7
2019-Aug-18 16:30N 68°32' E 016°11'3 6.1
2019-Aug-18 16:01N 68°33' E 016°18'3 6.1
2019-Aug-18 15:30N 68°33' E 016°27'2 4.8
2019-Aug-18 15:01N 68°35' E 016°32'3 6.4
2019-Aug-18 14:30N 68°38' E 016°35'3 5.5
2019-Aug-18 14:00N 68°40' E 016°38'3 6.3
2019-Aug-18 13:30N 68°43' E 016°41'3 5.9
2019-Aug-18 13:01N 68°46' E 016°38'4 6.9
2019-Aug-18 12:30N 68°49' E 016°42'4 7.2
2019-Aug-18 12:00N 68°53' E 016°45'4 7.9
2019-Aug-18 11:30N 68°56' E 016°46'4 7.7
2019-Aug-18 11:00N 69°00' E 016°46'4 7.5
2019-Aug-18 10:30N 69°04' E 016°45'4 7.3
2019-Aug-18 10:00N 69°07' E 016°47'4 7.2
2019-Aug-18 09:30N 69°11' E 016°48'4 7.1
2019-Aug-18 09:00N 69°15' E 016°50'3 6.1
2019-Aug-18 08:30N 69°18' E 016°52'3 6.0
2019-Aug-18 08:00N 69°20' E 016°57'2 1.8
2019-Aug-18 07:00N 69°21' E 017°02'1 2.5
2019-Aug-18 06:29N 69°22' E 017°04'0 0.0
2019-Aug-18 05:59N 69°22' E 017°04'0 0.0
2019-Aug-18 05:29N 69°22' E 017°04'0 0.0
2019-Aug-18 04:59N 69°22' E 017°04'0 0.0
2019-Aug-18 04:29N 69°22' E 017°04'0 0.0
2019-Aug-18 03:59N 69°22' E 017°04'0 0.0
2019-Aug-18 03:29N 69°22' E 017°04'0 0.0
2019-Aug-18 02:59N 69°22' E 017°04'0 0.0
2019-Aug-18 02:29N 69°22' E 017°04'0 0.0
2019-Aug-18 01:59N 69°22' E 017°04'0 0.0
2019-Aug-18 01:29N 69°22' E 017°04'0 0.0
2019-Aug-18 00:59N 69°22' E 017°04'0 0.0
2019-Aug-18 00:29N 69°22' E 017°04'0 0.0
2019-Aug-17 23:59N 69°22' E 017°04'0 0.0
2019-Aug-17 23:29N 69°22' E 017°04'0 0.0
2019-Aug-17 22:59N 69°22' E 017°04'0 0.0
2019-Aug-17 22:29N 69°22' E 017°04'0 0.0
2019-Aug-17 21:59N 69°22' E 017°04'0 0.0
2019-Aug-17 21:29N 69°22' E 017°04'0 0.0
2019-Aug-17 20:59N 69°22' E 017°04'0 0.0
2019-Aug-17 20:29N 69°22' E 017°04'0 0.0
2019-Aug-17 19:59N 69°22' E 017°04'0 0.0
2019-Aug-17 19:29N 69°22' E 017°04'0 0.0
2019-Aug-17 18:59N 69°22' E 017°04'2 3.2
2019-Aug-17 18:29N 69°21' E 016°59'4 4.2
2019-Aug-17 17:30N 69°23' E 016°48'2 3.7
2019-Aug-17 17:00N 69°25' E 016°46'2 4.0
2019-Aug-17 16:30N 69°27' E 016°44'2 3.1
2019-Aug-17 16:00N 69°28' E 016°43'1 3.0
2019-Aug-17 15:30N 69°29' E 016°42'1 2.7
2019-Aug-17 15:00N 69°31' E 016°44'3 5.3
2019-Aug-17 14:30N 69°31' E 016°52'2 4.8
2019-Aug-17 14:00N 69°30' E 016°58'3 5.1
2019-Aug-17 13:30N 69°29' E 017°05'2 4.9
2019-Aug-17 13:00N 69°28' E 017°11'3 5.3
2019-Aug-17 12:29N 69°27' E 017°18'0 0.0
2019-Aug-17 11:59N 69°27' E 017°18'0 0.0
2019-Aug-17 11:26N 69°27' E 017°18'0 0.0
2019-Aug-17 10:59N 69°27' E 017°18'0 0.0
2019-Aug-17 10:29N 69°27' E 017°18'0 0.0
2019-Aug-17 09:59N 69°27' E 017°18'0 0.0
2019-Aug-17 09:29N 69°27' E 017°18'0 0.0
2019-Aug-17 08:59N 69°27' E 017°18'0 0.0
2019-Aug-17 08:29N 69°27' E 017°18'0 0.0
2019-Aug-17 07:59N 69°27' E 017°18'0 0.0
2019-Aug-17 07:29N 69°27' E 017°18'0 0.3
2019-Aug-17 07:00N 69°27' E 017°17'2 3.7
2019-Aug-17 06:30N 69°28' E 017°13'1 1.0
2019-Aug-17 05:58N 69°28' E 017°12'0 0.0
2019-Aug-17 05:28N 69°28' E 017°12'0 0.0
2019-Aug-17 04:58N 69°28' E 017°12'0 0.0
2019-Aug-17 04:28N 69°28' E 017°12'0 0.0
2019-Aug-17 03:58N 69°28' E 017°12'0 0.0
2019-Aug-17 03:28N 69°28' E 017°12'0 0.0
2019-Aug-17 02:58N 69°28' E 017°12'0 0.0
2019-Aug-17 02:28N 69°28' E 017°12'0 0.0
2019-Aug-17 01:58N 69°28' E 017°12'0 0.0
2019-Aug-17 01:28N 69°28' E 017°12'0 0.0
2019-Aug-17 01:01N 69°28' E 017°12'0 0.0
2019-Aug-17 00:28N 69°28' E 017°12'0 0.0
2019-Aug-16 23:58N 69°28' E 017°12'0 0.0
2019-Aug-16 23:28N 69°28' E 017°12'0 0.0
2019-Aug-16 22:58N 69°28' E 017°12'0 0.0
2019-Aug-16 22:31N 69°28' E 017°12'0 0.0
2019-Aug-16 21:58N 69°28' E 017°12'0 0.0
2019-Aug-16 21:28N 69°28' E 017°12'0 0.0
2019-Aug-16 20:58N 69°28' E 017°12'0 0.0
2019-Aug-16 20:31N 69°28' E 017°12'0 0.0
2019-Aug-16 20:01N 69°28' E 017°12'0 0.0
2019-Aug-16 19:28N 69°28' E 017°12'0 0.0
2019-Aug-16 19:01N 69°28' E 017°12'0 0.0
2019-Aug-16 18:31N 69°28' E 017°12'0 0.0
2019-Aug-16 18:01N 69°28' E 017°12'0 0.0
2019-Aug-16 17:30N 69°28' E 017°12'0 0.3
2019-Aug-16 17:00N 69°28' E 017°12'2 4.1
2019-Aug-16 16:30N 69°30' E 017°09'1 2.7
2019-Aug-16 16:00N 69°31' E 017°09'2 4.1
2019-Aug-16 15:30N 69°33' E 017°11'3 5.6
2019-Aug-16 14:59N 69°36' E 017°10'2 4.7
2019-Aug-16 14:30N 69°38' E 017°13'3 5.8
2019-Aug-16 14:00N 69°39' E 017°21'3 5.5
2019-Aug-16 13:30N 69°40' E 017°28'2 4.9
2019-Aug-16 13:00N 69°40' E 017°35'3 6.2
2019-Aug-16 12:30N 69°39' E 017°43'3 6.2
2019-Aug-16 11:59N 69°37' E 017°50'3 6.9
2019-Aug-16 11:30N 69°34' E 017°56'4 7.0
2019-Aug-16 11:00N 69°32' E 018°04'3 7.0
2019-Aug-16 10:30N 69°31' E 018°13'4 7.1
2019-Aug-16 10:00N 69°31' E 018°23'4 7.1
2019-Aug-16 09:30N 69°33' E 018°33'3 6.5
2019-Aug-16 09:00N 69°33' E 018°42'2 3.7
2019-Aug-16 08:30N 69°34' E 018°47'3 6.4
2019-Aug-16 08:00N 69°36' E 018°53'3 5.6
2019-Aug-16 07:30N 69°39' E 018°58'0 0.4
2019-Aug-16 06:59N 69°39' E 018°57'0 0.0
2019-Aug-16 06:29N 69°39' E 018°57'0 0.0
2019-Aug-16 05:59N 69°39' E 018°57'0 0.0
2019-Aug-16 05:29N 69°39' E 018°57'0 0.0
2019-Aug-16 04:59N 69°39' E 018°57'0 0.0
2019-Aug-16 04:29N 69°39' E 018°57'0 0.0
2019-Aug-16 03:59N 69°39' E 018°57'0 0.0
2019-Aug-16 03:29N 69°39' E 018°57'0 0.0
2019-Aug-16 02:59N 69°39' E 018°57'0 0.0
2019-Aug-16 02:29N 69°39' E 018°57'0 0.0
2019-Aug-16 01:59N 69°39' E 018°57'0 0.0
2019-Aug-16 01:29N 69°39' E 018°57'0 0.0
2019-Aug-16 00:59N 69°39' E 018°57'0 0.0
2019-Aug-16 00:29N 69°39' E 018°57'0 0.0
2019-Aug-15 23:59N 69°39' E 018°57'0 0.0
2019-Aug-15 23:29N 69°39' E 018°57'0 0.0
2019-Aug-15 22:59N 69°39' E 018°57'0 0.0
2019-Aug-15 22:29N 69°39' E 018°57'0 0.0
2019-Aug-15 21:59N 69°39' E 018°57'0 0.0
2019-Aug-15 21:29N 69°39' E 018°57'0 0.0
2019-Aug-15 20:59N 69°39' E 018°57'0 0.0
2019-Aug-15 20:29N 69°39' E 018°57'0 0.0
2019-Aug-15 19:59N 69°39' E 018°57'0 0.0
2019-Aug-15 19:29N 69°39' E 018°57'0 0.0
2019-Aug-15 18:59N 69°39' E 018°57'0 0.0
2019-Aug-15 18:29N 69°39' E 018°57'0 0.0
2019-Aug-15 17:59N 69°39' E 018°57'0 0.0
2019-Aug-15 17:29N 69°39' E 018°57'0 0.0
2019-Aug-15 16:59N 69°39' E 018°57'0 0.0
2019-Aug-15 16:29N 69°39' E 018°57'0 0.0
2019-Aug-15 15:59N 69°39' E 018°57'0 0.0
2019-Aug-15 15:29N 69°39' E 018°57'0 0.0
2019-Aug-15 14:59N 69°39' E 018°57'0 0.0
2019-Aug-15 14:29N 69°39' E 018°57'0 0.0
2019-Aug-15 13:59N 69°39' E 018°57'0 0.0
2019-Aug-15 13:29N 69°39' E 018°57'0 0.0
2019-Aug-15 12:59N 69°39' E 018°57'0 0.0
2019-Aug-15 12:29N 69°39' E 018°57'0 0.0
2019-Aug-15 11:59N 69°39' E 018°57'0 0.0
2019-Aug-15 11:29N 69°39' E 018°57'0 0.0
2019-Aug-15 10:59N 69°39' E 018°57'0 0.0
2019-Aug-15 10:29N 69°39' E 018°57'0 0.0
2019-Aug-15 09:59N 69°39' E 018°57'0 0.0
2019-Aug-15 09:29N 69°39' E 018°57'0 0.0
2019-Aug-15 08:56N 69°39' E 018°57'0 0.0
2019-Aug-15 08:29N 69°39' E 018°57'0 0.0
2019-Aug-15 07:59N 69°39' E 018°57'0 0.0
2019-Aug-15 07:29N 69°39' E 018°57'0 0.0
2019-Aug-15 06:59N 69°39' E 018°57'0 0.0
2019-Aug-15 06:29N 69°39' E 018°57'0 0.0
2019-Aug-15 05:59N 69°39' E 018°57'0 0.0
2019-Aug-15 05:29N 69°39' E 018°57'0 0.0
2019-Aug-15 04:59N 69°39' E 018°57'0 0.0
2019-Aug-15 04:29N 69°39' E 018°57'0 0.0
2019-Aug-15 03:59N 69°39' E 018°57'0 0.0
2019-Aug-15 03:29N 69°39' E 018°57'0 0.0
2019-Aug-15 02:59N 69°39' E 018°57'0 0.0
2019-Aug-15 02:29N 69°39' E 018°57'0 0.0
2019-Aug-15 01:59N 69°39' E 018°57'0 0.0
2019-Aug-15 01:29N 69°39' E 018°57'0 0.0
2019-Aug-15 00:59N 69°39' E 018°57'0 0.0
2019-Aug-15 00:29N 69°39' E 018°57'0 0.0
2019-Aug-14 23:59N 69°39' E 018°57'0 0.0
2019-Aug-14 23:29N 69°39' E 018°57'0 0.0
2019-Aug-14 22:59N 69°39' E 018°57'0 0.0
2019-Aug-14 22:29N 69°39' E 018°57'0 0.0
2019-Aug-14 21:59N 69°39' E 018°57'0 0.0
2019-Aug-14 21:29N 69°39' E 018°57'0 0.0
2019-Aug-14 20:59N 69°39' E 018°57'0 0.0
2019-Aug-14 20:29N 69°39' E 018°57'0 0.0
2019-Aug-14 19:59N 69°39' E 018°57'0 0.0
2019-Aug-14 19:29N 69°39' E 018°57'0 0.0
2019-Aug-14 18:59N 69°39' E 018°57'0 0.0
2019-Aug-14 18:29N 69°39' E 018°57'0 0.0
2019-Aug-14 17:59N 69°39' E 018°57'0 0.0
2019-Aug-14 17:26N 69°39' E 018°57'0 0.0
2019-Aug-14 16:59N 69°39' E 018°57'0 0.0
2019-Aug-14 16:29N 69°39' E 018°57'0 0.0
2019-Aug-14 15:59N 69°39' E 018°57'0 0.0
2019-Aug-14 15:29N 69°39' E 018°57'0 0.0
2019-Aug-14 14:59N 69°39' E 018°57'0 0.0
2019-Aug-14 14:26N 69°39' E 018°57'0 0.0
2019-Aug-14 13:59N 69°39' E 018°57'0 0.0
2019-Aug-14 13:30N 69°39' E 018°57'1 2.2
2019-Aug-14 13:00N 69°38' E 018°56'2 4.7
2019-Aug-14 12:29N 69°36' E 018°53'2 4.0
2019-Aug-14 12:00N 69°34' E 018°49'3 5.6
2019-Aug-14 11:30N 69°33' E 018°42'3 5.7
2019-Aug-14 11:00N 69°32' E 018°34'2 4.6
2019-Aug-14 10:30N 69°32' E 018°28'2 4.2
2019-Aug-14 10:00N 69°30' E 018°25'3 6.0
2019-Aug-14 09:30N 69°27' E 018°26'3 5.7
2019-Aug-14 09:00N 69°24' E 018°29'3 6.0
2019-Aug-14 08:30N 69°22' E 018°36'3 5.7
2019-Aug-14 08:00N 69°21' E 018°42'3 5.5
2019-Aug-14 07:30N 69°20' E 018°50'  

Dump ship's entire track history